createdAt,value
2018-04-07T00:00:29.966Z,6.43
2018-04-07T00:02:57.560Z,4.12
2018-04-07T00:05:25.005Z,4.45
2018-04-07T00:07:52.463Z,7.35
2018-04-07T00:10:20.694Z,7.37
2018-04-07T00:12:48.181Z,4.25
2018-04-07T00:15:15.623Z,7.28
2018-04-07T00:17:43.090Z,4.93
2018-04-07T00:20:10.539Z,4.97
2018-04-07T00:22:38.013Z,4.93
2018-04-07T00:25:06.220Z,4.78
2018-04-07T00:27:33.709Z,5.72
2018-04-07T00:30:01.171Z,4.43
2018-04-07T00:32:28.602Z,6.75
2018-04-07T00:34:56.119Z,5.00
2018-04-07T00:37:24.335Z,4.28
2018-04-07T00:39:51.817Z,7.87
2018-04-07T00:42:19.276Z,4.93
2018-04-07T00:44:46.772Z,5.90
2018-04-07T00:47:14.988Z,4.45
2018-04-07T00:49:42.473Z,4.18
2018-04-07T00:52:09.936Z,4.80
2018-04-07T00:54:38.176Z,5.22
2018-04-07T00:57:05.633Z,4.37
2018-04-07T00:59:33.100Z,4.50
2018-04-07T01:02:00.558Z,8.15
2018-04-07T01:04:28.033Z,4.70
2018-04-07T01:06:55.506Z,6.50
2018-04-07T01:09:23.711Z,4.45
2018-04-07T01:11:51.167Z,4.53
2018-04-07T01:14:18.621Z,5.25
2018-04-07T01:16:46.118Z,3.78
2018-04-07T01:19:13.732Z,5.35
2018-04-07T01:21:41.202Z,3.85
2018-04-07T01:24:08.650Z,4.20
2018-04-07T01:26:36.125Z,8.50
2018-04-07T01:29:03.580Z,4.87
2018-04-07T01:31:31.058Z,3.65
2018-04-07T01:33:58.596Z,7.25
2018-04-07T01:36:26.053Z,3.90
2018-04-07T01:38:53.503Z,5.55
2018-04-07T01:41:20.953Z,6.93
2018-04-07T01:43:48.393Z,4.90
2018-04-07T01:46:15.851Z,6.78
2018-04-07T01:48:43.323Z,3.78
2018-04-07T01:51:10.788Z,4.55
2018-04-07T01:53:38.269Z,5.50
2018-04-07T01:56:05.727Z,4.35
2018-04-07T01:58:33.186Z,5.82
2018-04-07T02:01:00.636Z,4.90
2018-04-07T02:03:28.124Z,3.87
2018-04-07T02:05:56.363Z,4.90
2018-04-07T02:08:23.856Z,6.68
2018-04-07T02:10:52.073Z,4.60
2018-04-07T02:13:19.552Z,4.20
2018-04-07T02:15:46.993Z,5.47
2018-04-07T02:18:14.452Z,5.15
2018-04-07T02:20:41.907Z,3.72
2018-04-07T02:23:09.379Z,4.25
2018-04-07T02:25:36.838Z,4.78
2018-04-07T02:28:04.292Z,4.53
2018-04-07T02:30:31.757Z,6.47
2018-04-07T02:32:59.203Z,6.35
2018-04-07T02:35:26.661Z,7.32
2018-04-07T02:37:54.108Z,4.85
2018-04-07T02:40:21.582Z,5.50
2018-04-07T02:42:49.053Z,4.45
2018-04-07T02:45:16.533Z,4.00
2018-04-07T02:47:44.016Z,4.20
2018-04-07T02:50:11.509Z,4.45
2018-04-07T02:52:38.960Z,5.50
2018-04-07T02:55:06.437Z,4.30
2018-04-07T02:57:34.648Z,7.10
2018-04-07T03:00:02.103Z,7.40
2018-04-07T03:02:29.567Z,4.90
2018-04-07T03:04:57.032Z,5.72
2018-04-07T03:07:24.492Z,5.90
2018-04-07T03:09:52.042Z,4.35
2018-04-07T03:12:19.474Z,5.28
2018-04-07T03:14:46.947Z,4.07
2018-04-07T03:17:14.414Z,4.18
2018-04-07T03:19:41.864Z,5.05
2018-04-07T03:22:09.325Z,3.85
2018-04-07T03:24:36.777Z,7.87
2018-04-07T03:27:04.233Z,5.05
2018-04-07T03:29:31.699Z,4.12
2018-04-07T03:31:59.156Z,4.50
2018-04-07T03:34:26.622Z,5.03
2018-04-07T03:36:54.080Z,4.15
2018-04-07T03:39:21.529Z,5.37
2018-04-07T03:41:48.997Z,4.93
2018-04-07T03:44:16.453Z,5.10
2018-04-07T03:46:43.901Z,3.85
2018-04-07T03:49:11.366Z,5.80
2018-04-07T03:51:38.801Z,4.45
2018-04-07T03:54:06.287Z,4.20
2018-04-07T03:56:33.787Z,5.47
2018-04-07T03:59:01.998Z,6.95
2018-04-07T04:01:29.451Z,3.90
2018-04-07T04:03:56.918Z,5.90
2018-04-07T04:06:24.367Z,7.30
2018-04-07T04:08:51.850Z,4.47
2018-04-07T04:11:19.298Z,5.85
2018-04-07T04:13:46.787Z,6.53
2018-04-07T04:16:14.989Z,5.60
2018-04-07T04:18:42.452Z,6.28
2018-04-07T04:21:09.929Z,5.10
2018-04-07T04:23:37.369Z,4.55
2018-04-07T04:26:04.844Z,6.32
2018-04-07T04:28:32.297Z,5.45
2018-04-07T04:30:59.759Z,5.75
2018-04-07T04:33:27.240Z,4.93
2018-04-07T04:35:54.724Z,6.53
2018-04-07T04:38:22.166Z,6.15
2018-04-07T04:40:49.624Z,6.32
2018-04-07T04:43:17.061Z,4.72
2018-04-07T04:45:44.519Z,4.40
2018-04-07T04:48:12.742Z,9.65
2018-04-07T04:50:40.208Z,3.87
2018-04-07T04:53:07.723Z,5.28
2018-04-07T04:55:35.972Z,5.87
2018-04-07T04:58:03.460Z,9.18
2018-04-07T05:00:31.711Z,5.60
2018-04-07T05:02:59.218Z,6.40
2018-04-07T05:05:26.702Z,5.18
2018-04-07T05:07:54.303Z,6.85
2018-04-07T05:10:21.702Z,11.88
2018-04-07T05:12:49.194Z,6.50
2018-04-07T05:15:16.712Z,6.35
2018-04-07T05:17:44.313Z,5.65
2018-04-07T05:20:11.770Z,6.35
2018-04-07T05:22:39.226Z,7.95
2018-04-07T05:25:06.675Z,5.40
2018-04-07T05:27:34.153Z,6.80
2018-04-07T05:30:02.364Z,5.75
2018-04-07T05:32:29.990Z,6.32
2018-04-07T05:34:58.265Z,4.78
2018-04-07T05:37:26.567Z,7.93
2018-04-07T05:39:54.029Z,7.25
2018-04-07T05:42:21.479Z,5.45
2018-04-07T05:44:48.948Z,6.28
2018-04-07T05:47:16.388Z,11.15
2018-04-07T05:49:43.914Z,10.25
2018-04-07T05:52:14.198Z,5.00
2018-04-07T05:54:41.698Z,7.93
2018-04-07T05:57:09.898Z,6.93
2018-04-07T05:59:37.381Z,6.30
2018-04-07T06:02:04.820Z,7.93
2018-04-07T06:04:32.307Z,7.40
2018-04-07T06:06:59.758Z,5.83
2018-04-07T06:09:27.260Z,7.33
2018-04-07T06:11:54.748Z,6.70
2018-04-07T06:14:22.250Z,6.57
2018-04-07T06:16:50.185Z,5.67
2018-04-07T06:19:17.683Z,7.57
2018-04-07T06:21:45.147Z,7.43
2018-04-07T06:24:13.349Z,6.93
2018-04-07T06:26:40.832Z,7.10
2018-04-07T06:29:08.279Z,7.20
2018-04-07T06:31:35.758Z,8.00
2018-04-07T06:34:03.260Z,9.50
2018-04-07T06:36:30.760Z,8.23
2018-04-07T06:38:58.196Z,10.20
2018-04-07T06:41:25.656Z,7.80
2018-04-07T06:43:53.126Z,6.93
2018-04-07T06:46:20.684Z,9.17
2018-04-07T06:48:48.155Z,7.60
2018-04-07T06:51:15.627Z,6.93
2018-04-07T06:53:43.116Z,9.73
2018-04-07T06:56:10.623Z,8.40
2018-04-07T06:58:38.099Z,8.97
2018-04-07T07:01:05.586Z,7.97
2018-04-07T07:03:33.041Z,7.57
2018-04-07T07:06:00.553Z,7.97
2018-04-07T07:08:28.176Z,9.23
2018-04-07T07:10:55.643Z,8.40
2018-04-07T07:13:23.148Z,10.83
2018-04-07T07:15:50.609Z,9.40
2018-04-07T07:18:18.933Z,8.40
2018-04-07T07:20:46.412Z,8.00
2018-04-07T07:23:13.955Z,7.67
2018-04-07T07:25:41.441Z,8.80
2018-04-07T07:28:08.975Z,8.53
2018-04-07T07:30:37.455Z,8.70
2018-04-07T07:33:05.072Z,8.40
2018-04-07T07:35:33.382Z,8.23
2018-04-07T07:38:00.856Z,10.27
2018-04-07T07:40:28.447Z,13.27
2018-04-07T07:42:55.950Z,13.23
2018-04-07T07:45:23.409Z,8.80
2018-04-07T07:47:50.900Z,11.03
2018-04-07T07:50:18.503Z,9.07
2018-04-07T07:52:46.012Z,11.23
2018-04-07T07:55:13.486Z,9.13
2018-04-07T07:57:40.990Z,15.47
2018-04-07T08:00:08.473Z,12.13
2018-04-07T08:02:35.956Z,9.97
2018-04-07T08:05:03.556Z,10.93
2018-04-07T08:07:35.122Z,9.93
2018-04-07T08:10:03.157Z,9.50
2018-04-07T08:12:30.636Z,11.73
2018-04-07T08:14:58.253Z,10.07
2018-04-07T08:17:25.783Z,10.43
2018-04-07T08:19:53.294Z,12.00
2018-04-07T08:22:20.966Z,9.30
2018-04-07T08:24:48.465Z,9.43
2018-04-07T08:27:15.932Z,11.00
2018-04-07T08:29:43.509Z,9.93
2018-04-07T08:32:11.860Z,10.67
2018-04-07T08:34:39.283Z,11.80
2018-04-07T08:37:06.805Z,10.60
2018-04-07T08:39:34.498Z,9.50
2018-04-07T08:42:02.053Z,9.80
2018-04-07T08:44:29.679Z,10.20
2018-04-07T08:46:57.144Z,9.60
2018-04-07T08:49:24.586Z,10.47
2018-04-07T08:51:52.198Z,13.23
2018-04-07T08:54:20.799Z,9.77
2018-04-07T08:56:48.306Z,10.07
2018-04-07T08:59:15.872Z,14.60
2018-04-07T09:01:43.412Z,9.63
2018-04-07T09:04:10.906Z,10.17
2018-04-07T09:06:38.546Z,10.80
2018-04-07T09:09:06.727Z,10.00
2018-04-07T09:11:34.185Z,10.57
2018-04-07T09:14:01.649Z,10.13
2018-04-07T09:16:29.232Z,10.87
2018-04-07T09:18:56.711Z,9.67
2018-04-07T09:21:24.203Z,9.70
2018-04-07T09:23:52.464Z,10.00
2018-04-07T09:26:20.932Z,10.37
2018-04-07T09:28:48.444Z,12.03
2018-04-07T09:31:22.241Z,10.10
2018-04-07T09:33:49.838Z,11.70
2018-04-07T09:36:17.272Z,9.27
2018-04-07T09:38:44.918Z,9.87
2018-04-07T09:41:12.393Z,9.70
2018-04-07T09:43:39.913Z,9.33
2018-04-07T09:46:08.286Z,9.87
2018-04-07T09:48:36.652Z,9.67
2018-04-07T09:51:04.263Z,10.30
2018-04-07T09:53:31.754Z,10.37
2018-04-07T09:55:59.216Z,10.30
2018-04-07T09:58:27.545Z,10.93
2018-04-07T10:00:55.154Z,9.13
2018-04-07T10:03:22.661Z,10.67
2018-04-07T10:05:54.628Z,10.10
2018-04-07T10:08:22.085Z,10.07
2018-04-07T10:10:49.699Z,9.93
2018-04-07T10:13:17.228Z,11.40
2018-04-07T10:15:44.728Z,10.23
2018-04-07T10:18:15.861Z,9.37
2018-04-07T10:20:43.973Z,9.47
2018-04-07T10:23:11.426Z,10.17
2018-04-07T10:25:38.952Z,11.10
2018-04-07T10:28:06.409Z,10.43
2018-04-07T10:30:38.631Z,12.10
2018-04-07T10:33:06.132Z,10.23
2018-04-07T10:35:34.484Z,10.60
2018-04-07T10:38:01.964Z,10.10
2018-04-07T10:40:29.615Z,10.20
2018-04-07T10:42:57.383Z,12.13
2018-04-07T10:45:24.874Z,10.53
2018-04-07T10:47:52.404Z,13.67
2018-04-07T10:50:19.871Z,10.63
2018-04-07T10:52:47.472Z,12.60
2018-04-07T10:55:14.944Z,10.83
2018-04-07T10:57:42.501Z,11.47
2018-04-07T11:00:09.974Z,10.63
2018-04-07T11:02:37.477Z,11.27
2018-04-07T11:05:04.941Z,10.60
2018-04-07T11:07:32.431Z,10.13
2018-04-07T11:09:59.892Z,9.73
2018-04-07T11:12:27.381Z,10.20
2018-04-07T11:14:54.853Z,10.27
2018-04-07T11:17:22.643Z,10.43
2018-04-07T11:19:50.166Z,10.30
2018-04-07T11:22:17.649Z,11.00
2018-04-07T11:24:45.117Z,12.90
2018-04-07T11:27:13.573Z,11.00
2018-04-07T11:29:41.144Z,10.40
2018-04-07T11:32:09.534Z,10.53
2018-04-07T11:34:37.172Z,11.77
2018-04-07T11:37:04.643Z,11.60
2018-04-07T11:39:36.167Z,12.53
2018-04-07T11:42:03.804Z,11.00
2018-04-07T11:44:31.358Z,10.20
2018-04-07T11:46:58.846Z,10.30
2018-04-07T11:49:26.406Z,10.90
2018-04-07T11:51:54.145Z,9.93
2018-04-07T11:54:21.659Z,10.57
2018-04-07T11:56:49.126Z,10.30
2018-04-07T11:59:16.718Z,11.13
2018-04-07T12:01:44.232Z,11.23
2018-04-07T12:04:11.804Z,9.80
2018-04-07T12:06:39.448Z,11.30
2018-04-07T12:09:07.100Z,11.03
2018-04-07T12:11:34.718Z,11.13
2018-04-07T12:14:02.272Z,9.50
2018-04-07T12:16:29.821Z,10.03
2018-04-07T12:18:57.278Z,10.73
2018-04-07T12:21:24.889Z,10.50
2018-04-07T12:23:52.370Z,9.77
2018-04-07T12:26:19.843Z,10.77
2018-04-07T12:28:47.438Z,9.40
2018-04-07T12:31:15.048Z,8.80
2018-04-07T12:33:42.680Z,10.50
2018-04-07T12:36:10.375Z,10.10
2018-04-07T12:38:37.867Z,13.10
2018-04-07T12:41:05.554Z,10.60
2018-04-07T12:43:33.035Z,10.40
2018-04-07T12:46:00.618Z,12.97
2018-04-07T12:48:28.076Z,9.87
2018-04-07T12:50:55.541Z,10.97
2018-04-07T12:53:23.586Z,12.07
2018-04-07T12:55:51.045Z,11.07
2018-04-07T12:58:18.608Z,10.67
2018-04-07T13:00:46.119Z,10.57
2018-04-07T13:03:13.640Z,10.70
2018-04-07T13:05:41.182Z,10.33
2018-04-07T13:08:08.723Z,9.40
2018-04-07T13:10:36.201Z,9.20
2018-04-07T13:13:03.679Z,10.33
2018-04-07T13:15:31.136Z,10.53
2018-04-07T13:17:58.693Z,10.70
2018-04-07T13:20:26.170Z,9.77
2018-04-07T13:22:53.840Z,10.47
2018-04-07T13:25:21.548Z,10.03
2018-04-07T13:27:49.032Z,9.20
2018-04-07T13:30:16.602Z,9.10
2018-04-07T13:32:44.160Z,9.67
2018-04-07T13:35:11.710Z,7.90
2018-04-07T13:37:39.353Z,8.60
2018-04-07T13:40:06.866Z,7.97
2018-04-07T13:42:34.368Z,9.60
2018-04-07T13:45:01.982Z,10.10
2018-04-07T13:47:29.518Z,10.27
2018-04-07T13:49:57.109Z,10.30
2018-04-07T13:52:28.589Z,10.03
2018-04-07T13:54:56.132Z,9.43
2018-04-07T13:57:23.618Z,9.77
2018-04-07T13:59:51.192Z,8.60
2018-04-07T14:02:19.426Z,11.00
2018-04-07T14:04:47.100Z,10.90
2018-04-07T14:07:14.586Z,9.83
2018-04-07T14:09:42.249Z,8.73
2018-04-07T14:12:11.528Z,10.53
2018-04-07T14:14:38.987Z,8.77
2018-04-07T14:17:06.486Z,9.37
2018-04-07T14:19:34.059Z,8.27
2018-04-07T14:22:01.593Z,9.03
2018-04-07T14:24:29.116Z,12.63
2018-04-07T14:26:56.691Z,10.40
2018-04-07T14:29:25.065Z,12.50
2018-04-07T14:31:52.689Z,11.27
2018-04-07T14:34:20.326Z,8.13
2018-04-07T14:36:47.837Z,9.53
2018-04-07T14:39:15.577Z,7.73
2018-04-07T14:41:43.057Z,9.13
2018-04-07T14:44:10.824Z,8.13
2018-04-07T14:46:38.457Z,9.00
2018-04-07T14:49:06.825Z,8.40
2018-04-07T14:51:34.435Z,7.63
2018-04-07T14:54:02.140Z,7.83
2018-04-07T14:56:29.632Z,10.40
2018-04-07T14:58:57.203Z,9.20
2018-04-07T15:01:24.730Z,8.07
2018-04-07T15:03:52.217Z,7.30
2018-04-07T15:06:20.493Z,6.50
2018-04-07T15:08:48.060Z,7.70
2018-04-07T15:11:15.624Z,10.77
2018-04-07T15:13:43.160Z,9.40
2018-04-07T15:16:10.820Z,7.57
2018-04-07T15:18:38.334Z,8.20
2018-04-07T15:21:05.804Z,6.80
2018-04-07T15:23:33.286Z,8.00
2018-04-07T15:26:00.918Z,6.50
2018-04-07T15:28:28.559Z,7.87
2018-04-07T15:30:56.249Z,6.63
2018-04-07T15:33:23.744Z,7.13
2018-04-07T15:35:51.345Z,6.47
2018-04-07T15:38:19.023Z,6.87
2018-04-07T15:40:46.490Z,7.43
2018-04-07T15:43:14.025Z,7.00
2018-04-07T15:45:41.503Z,6.33
2018-04-07T15:48:09.163Z,5.27
2018-04-07T15:50:36.957Z,7.40
2018-04-07T15:53:04.646Z,6.70
2018-04-07T15:55:32.308Z,7.30
2018-04-07T15:57:59.943Z,5.37
2018-04-07T16:00:28.308Z,4.77
2018-04-07T16:02:55.890Z,5.73
2018-04-07T16:05:23.385Z,5.33
2018-04-07T16:07:50.899Z,6.00
2018-04-07T16:10:18.399Z,5.00
2018-04-07T16:12:45.986Z,8.63
2018-04-07T16:15:13.522Z,5.60
2018-04-07T16:17:41.136Z,5.20
2018-04-07T16:20:08.766Z,5.53
2018-04-07T16:22:40.179Z,11.93
2018-04-07T16:25:07.686Z,6.10
2018-04-07T16:27:35.161Z,6.03
2018-04-07T16:30:02.736Z,4.00
2018-04-07T16:32:30.242Z,4.30
2018-04-07T16:34:57.863Z,4.13
2018-04-07T16:37:25.409Z,4.33
2018-04-07T16:39:52.944Z,5.63
2018-04-07T16:42:20.450Z,5.33
2018-04-07T16:44:48.819Z,4.60
2018-04-07T16:47:16.425Z,4.53
2018-04-07T16:49:43.966Z,4.97
2018-04-07T16:52:11.485Z,6.50
2018-04-07T16:54:39.056Z,6.20
2018-04-07T16:57:06.606Z,7.10
2018-04-07T16:59:34.068Z,5.47
2018-04-07T17:02:01.589Z,5.20
2018-04-07T17:04:30.012Z,4.07
2018-04-07T17:06:57.640Z,3.80
2018-04-07T17:09:25.472Z,6.33
2018-04-07T17:11:52.980Z,5.00
2018-04-07T17:14:26.428Z,6.83
2018-04-07T17:16:53.966Z,4.73
2018-04-07T17:19:21.628Z,5.00
2018-04-07T17:21:49.128Z,4.57
2018-04-07T17:24:16.915Z,4.50
2018-04-07T17:26:44.391Z,3.73
2018-04-07T17:29:17.087Z,5.83
2018-04-07T17:31:44.926Z,3.60
2018-04-07T17:34:12.809Z,6.93
2018-04-07T17:36:40.284Z,4.80
2018-04-07T17:39:07.760Z,8.67
2018-04-07T17:41:35.253Z,4.50
2018-04-07T17:44:02.755Z,5.30
2018-04-07T17:46:30.391Z,5.97
2018-04-07T17:49:06.099Z,6.00
2018-04-07T17:51:25.725Z,7.90
2018-04-07T17:53:53.192Z,5.40
2018-04-07T17:56:20.742Z,6.70
2018-04-07T17:58:48.285Z,7.47
2018-04-07T18:01:16.548Z,7.30
2018-04-07T18:03:44.131Z,10.23
2018-04-07T18:06:11.654Z,7.70
2018-04-07T18:08:39.089Z,8.23
2018-04-07T18:11:06.696Z,6.33
2018-04-07T18:13:34.407Z,7.50
2018-04-07T18:16:02.025Z,7.77
2018-04-07T18:18:30.604Z,8.20
2018-04-07T18:20:58.361Z,6.87
2018-04-07T18:23:25.901Z,6.70
2018-04-07T18:25:53.402Z,10.70
2018-04-07T18:28:20.891Z,8.83
2018-04-07T18:30:48.389Z,7.60
2018-04-07T18:33:15.959Z,9.70
2018-04-07T18:35:43.442Z,6.80
2018-04-07T18:38:11.063Z,7.87
2018-04-07T18:40:38.556Z,5.50
2018-04-07T18:43:06.151Z,8.77
2018-04-07T18:45:33.740Z,6.73
2018-04-07T18:48:01.247Z,8.73
2018-04-07T18:50:28.909Z,7.43
2018-04-07T18:52:56.434Z,8.00
2018-04-07T18:55:24.039Z,8.00
2018-04-07T18:57:52.550Z,6.90
2018-04-07T19:00:20.100Z,7.93
2018-04-07T19:02:47.621Z,7.73
2018-04-07T19:05:15.248Z,7.90
2018-04-07T19:07:42.817Z,7.93
2018-04-07T19:10:11.215Z,6.50
2018-04-07T19:12:39.639Z,7.43
2018-04-07T19:15:07.244Z,8.73
2018-04-07T19:17:34.756Z,6.20
2018-04-07T19:20:02.319Z,10.70
2018-04-07T19:22:30.379Z,8.50
2018-04-07T19:24:57.834Z,8.30
2018-04-07T19:27:25.434Z,10.17
2018-04-07T19:29:52.964Z,8.20
2018-04-07T19:32:20.484Z,7.30
2018-04-07T19:34:47.990Z,9.67
2018-04-07T19:37:15.680Z,11.27
2018-04-07T19:39:43.144Z,8.83
2018-04-07T19:42:10.692Z,9.03
2018-04-07T19:44:38.255Z,9.17
2018-04-07T19:47:05.831Z,11.40
2018-04-07T19:49:33.292Z,8.30
2018-04-07T19:52:00.887Z,13.00
2018-04-07T19:54:28.572Z,12.43
2018-04-07T19:56:56.017Z,9.40
2018-04-07T19:59:24.076Z,10.03
2018-04-07T20:01:51.523Z,10.30
2018-04-07T20:04:18.998Z,13.10
2018-04-07T20:06:46.617Z,9.73
2018-04-07T20:09:14.273Z,13.97
2018-04-07T20:11:42.493Z,10.10
2018-04-07T20:14:14.154Z,9.57
2018-04-07T20:16:41.647Z,9.00
2018-04-07T20:19:09.184Z,10.83
2018-04-07T20:21:37.905Z,8.17
2018-04-07T20:24:21.507Z,15.93
2018-04-07T20:31:17.070Z,9.50
2018-04-07T20:33:46.094Z,11.47
2018-04-07T20:36:13.557Z,9.23
2018-04-07T20:38:41.140Z,8.57
2018-04-07T20:41:08.712Z,9.27
2018-04-07T20:43:36.971Z,8.23
2018-04-07T20:46:04.513Z,8.53
2018-04-07T20:48:32.023Z,10.37
2018-04-07T20:50:59.531Z,9.60
2018-04-07T20:53:27.036Z,9.50
2018-04-07T20:55:55.394Z,9.43
2018-04-07T20:58:22.865Z,9.33
2018-04-07T21:00:50.421Z,8.83
2018-04-07T21:03:18.070Z,10.30
2018-04-07T21:05:45.533Z,9.77
2018-04-07T21:08:17.293Z,9.93
2018-04-07T21:10:45.173Z,9.17
2018-04-07T21:13:12.740Z,8.37
2018-04-07T21:15:40.277Z,10.13
2018-04-07T21:18:07.768Z,13.10
2018-04-07T21:20:35.280Z,9.23
2018-04-07T21:23:02.840Z,9.60
2018-04-07T21:25:30.375Z,8.97
2018-04-07T21:27:58.081Z,10.00
2018-04-07T21:30:25.692Z,8.97
2018-04-07T21:32:53.566Z,9.20
2018-04-07T21:35:21.089Z,11.50
2018-04-07T21:37:48.613Z,9.27
2018-04-07T21:40:16.355Z,12.73
2018-04-07T21:42:43.917Z,12.00
2018-04-07T21:45:11.429Z,9.57
2018-04-07T21:47:39.002Z,10.33
2018-04-07T21:50:06.822Z,9.17
2018-04-07T21:52:34.359Z,9.43
2018-04-07T21:55:01.827Z,10.03
2018-04-07T21:57:29.390Z,11.93
2018-04-07T21:59:56.943Z,9.40
2018-04-07T22:02:24.508Z,12.57
2018-04-07T22:04:52.819Z,8.87
2018-04-07T22:07:20.351Z,11.90
2018-04-07T22:09:47.947Z,11.70
2018-04-07T22:12:16.287Z,8.53
2018-04-07T22:14:43.912Z,15.53
2018-04-07T22:17:11.379Z,9.30
2018-04-07T22:19:38.851Z,9.30
2018-04-07T22:22:06.421Z,11.63
2018-04-07T22:24:34.003Z,12.30
2018-04-07T22:27:01.753Z,12.70
2018-04-07T22:29:29.308Z,11.67
2018-04-07T22:31:56.892Z,11.20
2018-04-07T22:34:25.218Z,11.03
2018-04-07T22:36:52.760Z,17.43
2018-04-07T22:39:20.216Z,11.60
2018-04-07T22:41:47.758Z,8.90
2018-04-07T22:44:16.092Z,11.60
2018-04-07T22:46:43.554Z,12.60
2018-04-07T22:49:11.244Z,12.30
2018-04-07T22:51:38.820Z,11.43
2018-04-07T22:54:06.362Z,16.53
2018-04-07T22:56:39.521Z,12.37
2018-04-07T22:59:06.967Z,16.40
2018-04-07T23:01:34.480Z,13.83
2018-04-07T23:04:02.140Z,14.33
2018-04-07T23:06:29.644Z,13.40
2018-04-07T23:08:57.088Z,11.40
2018-04-07T23:11:24.564Z,14.13
2018-04-07T23:13:52.067Z,11.23
2018-04-07T23:16:19.581Z,9.77
2018-04-07T23:18:47.035Z,10.10
2018-04-07T23:21:14.526Z,9.67
2018-04-07T23:23:41.994Z,11.63
2018-04-07T23:26:09.448Z,12.10
2018-04-07T23:28:37.038Z,11.13
2018-04-07T23:31:04.622Z,14.37
2018-04-07T23:33:32.193Z,13.20
2018-04-07T23:35:59.648Z,9.83
2018-04-07T23:38:27.153Z,9.77
2018-04-07T23:40:54.651Z,13.93
2018-04-07T23:43:22.207Z,12.53
2018-04-07T23:45:49.769Z,11.60
2018-04-07T23:48:17.971Z,12.90
2018-04-07T23:50:45.576Z,10.27
2018-04-07T23:53:13.142Z,10.60
2018-04-07T23:55:41.358Z,9.03
2018-04-07T23:58:08.906Z,10.00
